createdAt,value
2023-01-10T00:00:13.758Z,52.17
2023-01-10T00:00:48.490Z,52.68
2023-01-10T00:01:20.643Z,52.56
2023-01-10T00:01:53.115Z,52.61
2023-01-10T00:02:32.667Z,52.28
2023-01-10T00:03:08.292Z,52.57
2023-01-10T00:03:46.024Z,52.56
2023-01-10T00:04:35.451Z,52.52
2023-01-10T00:05:11.218Z,52.66
2023-01-10T00:06:18.190Z,52.69
2023-01-10T00:06:52.911Z,52.66
2023-01-10T00:07:25.019Z,52.22
2023-01-10T00:07:59.767Z,52.30
2023-01-10T00:08:31.821Z,52.78
2023-01-10T00:09:06.124Z,52.26
2023-01-10T00:09:40.864Z,52.29
2023-01-10T00:10:15.418Z,51.96
2023-01-10T00:11:25.971Z,52.33
2023-01-10T00:12:13.125Z,52.27
2023-01-10T00:13:00.353Z,52.63
2023-01-10T00:13:32.517Z,52.54
2023-01-10T00:14:04.607Z,52.43
2023-01-10T00:14:36.966Z,52.24
2023-01-10T00:15:14.431Z,51.80
2023-01-10T00:15:46.840Z,51.79
2023-01-10T00:16:21.029Z,51.86
2023-01-10T00:16:55.680Z,52.25
2023-01-10T00:17:30.442Z,52.59
2023-01-10T00:18:02.685Z,52.01
2023-01-10T00:18:37.337Z,52.23
2023-01-10T00:19:10.678Z,51.71
2023-01-10T00:19:45.546Z,52.21
2023-01-10T00:20:17.932Z,51.64
2023-01-10T00:20:50.217Z,52.05
2023-01-10T00:21:24.966Z,52.55
2023-01-10T00:22:02.743Z,52.51
2023-01-10T00:22:34.912Z,52.26
2023-01-10T00:23:09.694Z,52.37
2023-01-10T00:23:43.342Z,52.25
2023-01-10T00:24:19.023Z,52.19
2023-01-10T00:24:54.746Z,52.02
2023-01-10T00:25:27.139Z,51.79
2023-01-10T00:26:01.756Z,51.79
2023-01-10T00:26:36.316Z,52.09
2023-01-10T00:32:03.087Z,52.11
2023-01-10T00:32:37.769Z,51.82
2023-01-10T00:33:15.110Z,51.87
2023-01-10T00:33:49.892Z,52.35
2023-01-10T00:34:22.011Z,51.24
2023-01-10T00:34:54.800Z,51.02
2023-01-10T00:35:29.638Z,51.31
2023-01-10T00:36:04.303Z,51.62
2023-01-10T00:36:36.557Z,52.18
2023-01-10T00:37:11.318Z,52.15
2023-01-10T00:37:43.399Z,52.04
2023-01-10T00:38:15.701Z,52.03
2023-01-10T00:38:50.399Z,51.44
2023-01-10T00:39:26.099Z,51.27
2023-01-10T00:39:58.827Z,51.66
2023-01-10T00:40:33.593Z,51.81
2023-01-10T00:41:27.689Z,51.63
2023-01-10T00:42:15.365Z,52.14
2023-01-10T00:43:04.788Z,52.20
2023-01-10T00:43:51.934Z,52.33
2023-01-10T00:44:24.137Z,52.26
2023-01-10T00:45:00.122Z,52.23
2023-01-10T00:45:34.764Z,52.78
2023-01-10T00:46:07.530Z,52.44
2023-01-10T00:46:39.872Z,52.49
2023-01-10T00:47:18.822Z,52.45
2023-01-10T00:47:57.717Z,52.53
2023-01-10T00:48:31.958Z,52.55
2023-01-10T00:49:14.031Z,52.07
2023-01-10T00:49:47.929Z,51.90
2023-01-10T00:50:20.005Z,52.00
2023-01-10T00:50:54.713Z,51.96
2023-01-10T00:51:26.811Z,52.11
2023-01-10T00:51:59.948Z,52.00
2023-01-10T00:52:34.924Z,52.09
2023-01-10T00:53:07.242Z,51.23
2023-01-10T00:53:39.363Z,51.65
2023-01-10T00:54:12.471Z,52.13
2023-01-10T00:54:50.271Z,51.92
2023-01-10T00:55:22.381Z,52.44
2023-01-10T00:55:56.926Z,51.88
2023-01-10T00:56:34.488Z,52.35
2023-01-10T00:57:08.409Z,52.33
2023-01-10T00:57:43.082Z,52.21
2023-01-10T00:58:16.637Z,52.11
2023-01-10T00:58:48.691Z,52.16
2023-01-10T00:59:23.404Z,52.79
2023-01-10T00:59:55.499Z,52.77
2023-01-10T01:00:27.707Z,52.67
2023-01-10T01:01:02.934Z,52.79
2023-01-10T01:01:35.117Z,51.82
2023-01-10T01:02:07.419Z,52.39
2023-01-10T01:02:42.160Z,52.36
2023-01-10T01:03:21.587Z,52.45
2023-01-10T01:03:53.757Z,52.18
2023-01-10T01:04:28.468Z,52.45
2023-01-10T01:06:30.148Z,52.18
2023-01-10T01:07:02.353Z,52.57
2023-01-10T01:07:34.482Z,52.24
2023-01-10T01:08:09.174Z,52.73
2023-01-10T01:08:41.284Z,52.42
2023-01-10T01:09:13.914Z,52.69
2023-01-10T01:10:01.023Z,52.45
2023-01-10T01:10:35.675Z,52.06
2023-01-10T01:11:07.873Z,52.73
2023-01-10T01:11:40.672Z,52.57
2023-01-10T01:12:15.299Z,52.50
2023-01-10T01:12:47.463Z,53.03
2023-01-10T01:13:22.047Z,52.80
2023-01-10T01:13:56.701Z,52.57
2023-01-10T01:14:28.800Z,52.75
2023-01-10T01:15:00.999Z,52.97
2023-01-10T01:15:37.498Z,52.68
2023-01-10T01:16:09.708Z,53.23
2023-01-10T01:16:44.518Z,52.76
2023-01-10T01:17:17.491Z,53.55
2023-01-10T01:17:49.779Z,53.35
2023-01-10T01:18:27.481Z,52.92
2023-01-10T01:18:59.548Z,53.21
2023-01-10T01:19:31.692Z,53.41
2023-01-10T01:20:07.084Z,53.94
2023-01-10T01:20:40.255Z,54.10
2023-01-10T01:21:12.708Z,53.67
2023-01-10T01:21:49.082Z,53.33
2023-01-10T01:22:21.226Z,53.26
2023-01-10T01:22:53.364Z,53.54
2023-01-10T01:23:25.460Z,53.24
2023-01-10T01:24:06.100Z,53.54
2023-01-10T01:24:39.524Z,53.17
2023-01-10T01:25:17.844Z,52.84
2023-01-10T01:25:53.814Z,52.92
2023-01-10T01:26:26.667Z,53.21
2023-01-10T01:26:58.841Z,53.28
2023-01-10T01:27:34.986Z,52.83
2023-01-10T01:28:08.181Z,52.75
2023-01-10T01:28:40.278Z,52.92
2023-01-10T01:29:16.728Z,53.20
2023-01-10T01:29:50.008Z,53.02
2023-01-10T01:30:51.701Z,53.21
2023-01-10T01:31:26.743Z,53.50
2023-01-10T01:31:59.181Z,53.19
2023-01-10T01:32:31.685Z,52.92
2023-01-10T01:33:06.603Z,53.14
2023-01-10T01:33:41.485Z,53.02
2023-01-10T01:34:13.639Z,53.37
2023-01-10T01:34:48.283Z,53.73
2023-01-10T01:35:20.608Z,53.75
2023-01-10T01:35:52.684Z,54.27
2023-01-10T01:36:27.352Z,54.37
2023-01-10T01:36:59.583Z,54.46
2023-01-10T01:37:31.892Z,53.83
2023-01-10T01:38:06.993Z,54.01
2023-01-10T01:38:39.720Z,53.64
2023-01-10T01:39:13.364Z,54.00
2023-01-10T01:39:48.061Z,53.41
2023-01-10T01:40:22.214Z,53.97
2023-01-10T01:40:56.678Z,53.46
2023-01-10T01:41:43.575Z,54.15
2023-01-10T01:42:26.878Z,54.15
2023-01-10T01:42:59.048Z,54.16
2023-01-10T01:43:32.105Z,54.40
2023-01-10T01:44:09.107Z,53.41
2023-01-10T01:44:42.654Z,53.67
2023-01-10T01:45:34.811Z,53.78
2023-01-10T01:46:25.818Z,54.16
2023-01-10T01:47:05.317Z,54.12
2023-01-10T01:47:43.015Z,54.22
2023-01-10T01:48:23.572Z,54.10
2023-01-10T01:48:58.715Z,54.04
2023-01-10T01:49:34.106Z,53.93
2023-01-10T01:50:09.209Z,54.43
2023-01-10T01:50:50.343Z,53.94
2023-01-10T01:51:33.061Z,54.04
2023-01-10T01:52:09.894Z,54.42
2023-01-10T01:52:42.037Z,54.00
2023-01-10T01:53:22.723Z,54.41
2023-01-10T01:53:59.326Z,54.43
2023-01-10T01:54:35.707Z,54.55
2023-01-10T01:55:08.783Z,54.47
2023-01-10T01:55:44.447Z,54.56
2023-01-10T01:56:24.020Z,54.84
2023-01-10T01:57:03.644Z,54.80
2023-01-10T01:57:35.879Z,55.01
2023-01-10T01:58:20.010Z,54.62
2023-01-10T01:58:56.625Z,54.22
2023-01-10T01:59:38.330Z,54.51
2023-01-10T02:00:12.099Z,54.30
2023-01-10T02:00:45.841Z,54.10
2023-01-10T02:01:21.055Z,54.37
2023-01-10T02:01:56.688Z,54.34
2023-01-10T02:02:31.592Z,54.50
2023-01-10T02:03:08.534Z,54.35
2023-01-10T02:03:45.429Z,54.21
2023-01-10T02:04:27.373Z,54.30
2023-01-10T02:05:03.552Z,54.42
2023-01-10T02:05:39.420Z,54.16
2023-01-10T02:06:14.860Z,54.69
2023-01-10T02:06:50.747Z,55.26
2023-01-10T02:07:25.676Z,55.37
2023-01-10T02:08:02.454Z,54.91
2023-01-10T02:08:35.160Z,54.67
2023-01-10T02:09:16.399Z,54.11
2023-01-10T02:09:56.119Z,53.82
2023-01-10T02:10:36.844Z,54.05
2023-01-10T02:11:10.721Z,54.12
2023-01-10T02:11:45.414Z,53.80
2023-01-10T02:12:17.648Z,53.61
2023-01-10T02:12:55.463Z,54.41
2023-01-10T02:13:33.078Z,54.06
2023-01-10T02:14:23.896Z,54.51
2023-01-10T02:15:05.622Z,54.61
2023-01-10T02:15:39.821Z,54.61
2023-01-10T02:16:14.773Z,54.46
2023-01-10T02:16:47.088Z,54.63
2023-01-10T02:17:19.177Z,54.82
2023-01-10T02:17:55.619Z,54.94
2023-01-10T02:18:27.755Z,54.83
2023-01-10T02:19:00.185Z,54.69
2023-01-10T02:19:51.034Z,54.52
2023-01-10T02:20:24.243Z,55.17
2023-01-10T02:21:12.102Z,55.00
2023-01-10T02:22:30.421Z,54.97
2023-01-10T02:24:00.567Z,54.21
2023-01-10T02:25:07.844Z,55.35
2023-01-10T02:26:08.643Z,54.67
2023-01-10T02:26:57.864Z,55.26
2023-01-10T02:27:43.307Z,55.32
2023-01-10T02:28:47.417Z,55.76
2023-01-10T02:29:56.661Z,55.09
2023-01-10T02:30:54.171Z,55.36
2023-01-10T02:31:40.753Z,55.48
2023-01-10T02:32:43.457Z,55.18
2023-01-10T02:33:48.811Z,55.48
2023-01-10T02:34:28.894Z,55.48
2023-01-10T02:35:13.934Z,55.37
2023-01-10T02:36:02.325Z,55.90
2023-01-10T02:36:43.914Z,55.51
2023-01-10T02:37:20.236Z,55.53
2023-01-10T02:38:07.980Z,55.49
2023-01-10T02:38:52.589Z,55.52
2023-01-10T02:39:36.981Z,55.76
2023-01-10T02:40:19.460Z,56.20
2023-01-10T02:41:10.080Z,56.32
2023-01-10T02:41:45.730Z,55.99
2023-01-10T02:42:28.395Z,55.89
2023-01-10T02:43:09.163Z,55.55
2023-01-10T02:43:51.283Z,55.55
2023-01-10T02:44:30.434Z,55.87
2023-01-10T02:45:10.529Z,55.74
2023-01-10T02:45:50.502Z,55.70
2023-01-10T02:46:27.771Z,55.74
2023-01-10T02:47:06.375Z,55.59
2023-01-10T02:47:41.923Z,54.79
2023-01-10T02:48:14.111Z,55.09
2023-01-10T02:48:48.733Z,55.43
2023-01-10T02:49:20.863Z,55.33
2023-01-10T02:49:55.180Z,55.28
2023-01-10T02:50:54.504Z,55.46
2023-01-10T02:51:29.273Z,55.25
2023-01-10T02:52:06.591Z,55.22
2023-01-10T02:52:38.810Z,55.66
2023-01-10T02:53:17.241Z,54.99
2023-01-10T02:53:56.217Z,55.30
2023-01-10T02:54:33.872Z,55.37
2023-01-10T02:55:06.623Z,55.51
2023-01-10T02:56:02.577Z,55.82
2023-01-10T02:56:54.199Z,55.42
2023-01-10T02:57:47.749Z,55.10
2023-01-10T02:58:32.227Z,55.89
2023-01-10T02:59:29.688Z,55.28
2023-01-10T03:00:33.454Z,55.36
2023-01-10T03:01:14.043Z,55.86
2023-01-10T03:01:56.625Z,56.13
2023-01-10T03:03:01.317Z,55.96
2023-01-10T03:03:40.749Z,55.70
2023-01-10T03:04:27.301Z,55.54
2023-01-10T03:05:29.482Z,55.85
2023-01-10T03:06:22.221Z,56.06
2023-01-10T03:07:02.557Z,55.79
2023-01-10T03:07:42.786Z,56.37
2023-01-10T03:08:28.301Z,56.37
2023-01-10T03:09:10.015Z,56.69
2023-01-10T03:09:55.582Z,56.69
2023-01-10T03:10:33.826Z,56.69
2023-01-10T03:11:08.294Z,56.30
2023-01-10T03:11:48.288Z,56.33
2023-01-10T03:12:25.468Z,56.20
2023-01-10T03:13:02.366Z,56.02
2023-01-10T03:13:44.352Z,56.05
2023-01-10T03:14:19.339Z,56.43
2023-01-10T03:14:54.010Z,56.61
2023-01-10T03:15:32.172Z,56.36
2023-01-10T03:16:10.683Z,56.57
2023-01-10T03:16:54.740Z,56.53
2023-01-10T03:17:29.762Z,56.01
2023-01-10T03:18:10.299Z,56.58
2023-01-10T03:18:47.479Z,56.59
2023-01-10T03:19:23.016Z,56.42
2023-01-10T03:20:01.607Z,56.91
2023-01-10T03:20:37.635Z,56.71
2023-01-10T03:21:12.121Z,56.77
2023-01-10T03:21:47.345Z,56.77
2023-01-10T03:22:19.664Z,55.89
2023-01-10T03:22:56.131Z,56.19
2023-01-10T03:23:31.315Z,56.53
2023-01-10T03:24:08.043Z,56.90
2023-01-10T03:24:50.117Z,56.54
2023-01-10T03:25:26.648Z,56.90
2023-01-10T03:25:58.988Z,56.66
2023-01-10T03:26:44.006Z,57.09
2023-01-10T03:27:22.435Z,57.01
2023-01-10T03:28:05.152Z,56.06
2023-01-10T03:28:45.661Z,56.00
2023-01-10T03:29:30.103Z,56.65
2023-01-10T03:30:11.061Z,56.68
2023-01-10T03:30:47.329Z,56.63
2023-01-10T03:31:26.778Z,57.15
2023-01-10T03:32:05.009Z,57.14
2023-01-10T03:32:42.992Z,56.88
2023-01-10T03:33:23.361Z,56.89
2023-01-10T03:33:55.331Z,56.60
2023-01-10T03:34:27.879Z,56.78
2023-01-10T03:35:03.840Z,56.65
2023-01-10T03:35:44.432Z,56.95
2023-01-10T03:36:30.935Z,56.96
2023-01-10T03:37:11.256Z,57.16
2023-01-10T03:37:52.923Z,57.17
2023-01-10T03:38:32.745Z,57.33
2023-01-10T03:39:15.732Z,56.61
2023-01-10T03:40:00.616Z,57.35
2023-01-10T03:40:44.236Z,57.45
2023-01-10T03:41:26.591Z,57.59
2023-01-10T03:42:10.386Z,57.42
2023-01-10T03:43:04.209Z,57.22
2023-01-10T03:43:59.276Z,57.20
2023-01-10T03:44:46.162Z,57.47
2023-01-10T03:45:28.695Z,56.97
2023-01-10T03:46:05.469Z,57.45
2023-01-10T03:46:45.260Z,58.14
2023-01-10T03:47:26.120Z,57.92
2023-01-10T03:48:04.133Z,57.77
2023-01-10T03:48:43.969Z,57.74
2023-01-10T03:49:18.774Z,57.47
2023-01-10T03:49:58.796Z,57.41
2023-01-10T03:50:32.318Z,57.46
2023-01-10T03:51:07.126Z,57.39
2023-01-10T03:51:43.323Z,57.96
2023-01-10T03:52:18.335Z,58.21
2023-01-10T03:52:50.529Z,58.12
2023-01-10T03:53:25.710Z,57.93
2023-01-10T03:54:00.143Z,57.73
2023-01-10T03:54:32.254Z,57.66
2023-01-10T03:55:08.643Z,57.87
2023-01-10T03:56:08.693Z,58.24
2023-01-10T03:56:47.717Z,58.25
2023-01-10T03:57:24.799Z,58.47
2023-01-10T03:57:57.191Z,58.72
2023-01-10T03:58:37.784Z,58.56
2023-01-10T03:59:09.918Z,58.11
2023-01-10T03:59:42.193Z,58.57
2023-01-10T04:00:18.882Z,58.69
2023-01-10T04:00:51.101Z,58.42
2023-01-10T04:01:23.391Z,58.21
2023-01-10T04:01:58.556Z,58.18
2023-01-10T04:02:32.250Z,58.13
2023-01-10T04:03:04.689Z,58.49
2023-01-10T04:03:41.953Z,58.61
2023-01-10T04:04:14.086Z,58.31
2023-01-10T04:04:46.325Z,58.54
2023-01-10T04:05:20.999Z,58.41
2023-01-10T04:05:53.086Z,58.36
2023-01-10T04:06:25.175Z,58.12
2023-01-10T04:06:57.263Z,58.46
2023-01-10T04:07:31.936Z,58.26
2023-01-10T04:08:05.595Z,58.36
2023-01-10T04:08:37.716Z,58.34
2023-01-10T04:09:10.253Z,58.20
2023-01-10T04:09:44.931Z,58.81
2023-01-10T04:10:17.265Z,58.33
2023-01-10T04:10:49.513Z,58.03
2023-01-10T04:11:27.136Z,57.94
2023-01-10T04:12:00.534Z,57.80
2023-01-10T04:12:33.085Z,57.75
2023-01-10T04:21:17.327Z,57.76
2023-01-10T04:21:54.641Z,58.45
2023-01-10T04:22:27.007Z,58.40
2023-01-10T04:22:59.204Z,58.28
2023-01-10T04:23:33.869Z,57.98
2023-01-10T04:24:12.548Z,57.77
2023-01-10T04:24:51.465Z,57.77
2023-01-10T04:25:24.549Z,57.44
2023-01-10T04:25:56.782Z,57.96
2023-01-10T04:26:33.936Z,58.14
2023-01-10T04:27:11.988Z,58.08
2023-01-10T04:29:13.449Z,58.52
2023-01-10T04:29:45.723Z,58.62
2023-01-10T04:30:18.256Z,59.34
2023-01-10T04:31:08.829Z,59.27
2023-01-10T04:31:40.816Z,58.42
2023-01-10T04:32:16.358Z,58.23
2023-01-10T04:32:51.529Z,58.88
2023-01-10T04:33:23.659Z,58.79
2023-01-10T04:33:55.747Z,58.65
2023-01-10T04:34:30.572Z,58.43
2023-01-10T04:35:02.698Z,59.02
2023-01-10T04:35:37.465Z,58.67
2023-01-10T04:36:09.784Z,58.27
2023-01-10T04:36:48.864Z,58.98
2023-01-10T04:37:27.031Z,59.13
2023-01-10T04:38:00.949Z,58.54
2023-01-10T04:38:35.724Z,58.38
2023-01-10T04:39:08.330Z,58.32
2023-01-10T04:39:41.312Z,58.34
2023-01-10T04:40:19.636Z,58.62
2023-01-10T04:40:55.888Z,58.92
2023-01-10T04:41:31.338Z,59.00
2023-01-10T04:42:06.213Z,59.12
2023-01-10T04:42:38.372Z,59.10
2023-01-10T04:43:11.234Z,59.01
2023-01-10T04:44:11.566Z,58.63
2023-01-10T04:44:46.234Z,58.82
2023-01-10T04:45:20.472Z,58.38
2023-01-10T04:45:52.894Z,58.54
2023-01-10T04:46:27.697Z,58.73
2023-01-10T04:47:05.881Z,58.69
2023-01-10T04:47:40.535Z,58.88
2023-01-10T04:48:12.657Z,58.69
2023-01-10T04:48:44.817Z,58.94
2023-01-10T04:49:19.460Z,58.67
2023-01-10T04:49:51.555Z,58.84
2023-01-10T04:50:23.834Z,58.87
2023-01-10T04:50:55.952Z,58.84
2023-01-10T04:51:31.453Z,59.05
2023-01-10T04:52:04.156Z,59.21
2023-01-10T04:52:38.784Z,58.82
2023-01-10T04:53:17.941Z,59.05
2023-01-10T04:53:50.022Z,58.80
2023-01-10T04:54:22.655Z,58.90
2023-01-10T04:54:57.527Z,59.49
2023-01-10T04:55:29.673Z,59.28
2023-01-10T04:56:06.229Z,59.50
2023-01-10T04:56:41.004Z,59.56
2023-01-10T04:58:42.083Z,59.30
2023-01-10T04:59:14.214Z,59.33
2023-01-10T04:59:46.530Z,58.93
2023-01-10T05:00:21.791Z,59.01
2023-01-10T05:00:54.024Z,59.28
2023-01-10T05:01:26.660Z,59.43
2023-01-10T05:02:01.967Z,59.40
2023-01-10T05:02:34.223Z,59.18
2023-01-10T05:03:21.788Z,59.03
2023-01-10T05:03:59.243Z,59.30
2023-01-10T05:04:31.635Z,59.21
2023-01-10T05:05:03.819Z,59.69
2023-01-10T05:05:40.806Z,59.74
2023-01-10T05:06:13.078Z,59.90
2023-01-10T05:06:45.183Z,60.15
2023-01-10T05:07:19.917Z,59.76
2023-01-10T05:07:54.811Z,59.64
2023-01-10T05:08:26.903Z,60.15
2023-01-10T05:09:01.768Z,59.97
2023-01-10T05:09:33.966Z,59.36
2023-01-10T05:10:08.677Z,59.60
2023-01-10T05:10:43.305Z,58.87
2023-01-10T05:11:15.638Z,59.79
2023-01-10T05:11:47.745Z,59.61
2023-01-10T05:12:24.671Z,59.87
2023-01-10T05:12:56.765Z,59.43
2023-01-10T05:13:30.428Z,59.58
2023-01-10T05:14:05.117Z,60.13
2023-01-10T05:14:37.283Z,59.78
2023-01-10T05:15:10.186Z,59.45
2023-01-10T05:15:44.936Z,59.71
2023-01-10T05:16:21.689Z,59.51
2023-01-10T05:16:53.883Z,59.89
2023-01-10T05:17:29.055Z,59.91
2023-01-10T05:18:31.610Z,59.53
2023-01-10T05:19:06.465Z,59.40
2023-01-10T05:19:38.545Z,59.23
2023-01-10T05:20:13.577Z,59.50
2023-01-10T05:20:48.255Z,59.12
2023-01-10T05:21:20.457Z,59.08
2023-01-10T05:21:53.395Z,58.97
2023-01-10T05:22:28.239Z,58.86
2023-01-10T05:23:02.912Z,59.16
2023-01-10T05:23:34.981Z,59.05
2023-01-10T05:24:10.161Z,58.94
2023-01-10T05:24:42.259Z,59.07
2023-01-10T05:25:14.526Z,58.65
2023-01-10T05:25:49.163Z,59.24
2023-01-10T05:26:23.697Z,58.94
2023-01-10T05:26:55.759Z,59.28
2023-01-10T05:27:33.513Z,59.44
2023-01-10T05:28:05.623Z,59.00
2023-01-10T05:30:15.806Z,59.84
2023-01-10T05:30:49.138Z,59.84
2023-01-10T05:31:21.271Z,59.44
2023-01-10T05:31:58.228Z,59.51
2023-01-10T05:32:30.581Z,59.34
2023-01-10T05:33:05.845Z,59.92
2023-01-10T05:33:41.237Z,59.47
2023-01-10T05:34:13.411Z,59.68
2023-01-10T05:34:46.117Z,59.20
2023-01-10T05:35:20.967Z,59.51
2023-01-10T05:35:53.066Z,60.16
2023-01-10T05:36:25.275Z,60.02
2023-01-10T05:37:02.895Z,59.60
2023-01-10T05:37:35.148Z,59.84
2023-01-10T05:38:09.815Z,60.08
2023-01-10T05:38:44.576Z,59.99
2023-01-10T05:39:16.948Z,60.45
2023-01-10T05:39:49.020Z,59.29
2023-01-10T05:40:23.707Z,59.56
2023-01-10T05:40:56.415Z,59.90
2023-01-10T05:42:01.064Z,59.76
2023-01-10T05:42:33.230Z,59.72
2023-01-10T05:43:07.880Z,60.16
2023-01-10T05:43:42.913Z,60.55
2023-01-10T05:44:15.034Z,60.71
2023-01-10T05:44:47.129Z,60.81
2023-01-10T05:45:23.247Z,60.98
2023-01-10T05:45:55.481Z,60.58
2023-01-10T05:46:30.267Z,60.38
2023-01-10T05:47:03.150Z,60.13
2023-01-10T05:47:35.325Z,60.10
2023-01-10T05:48:10.425Z,59.96
2023-01-10T05:48:45.702Z,60.33
2023-01-10T05:49:17.823Z,60.08
2023-01-10T05:49:55.028Z,61.24
2023-01-10T05:50:27.168Z,60.60
2023-01-10T05:51:11.369Z,60.75
2023-01-10T05:51:46.044Z,60.94
2023-01-10T05:52:18.139Z,60.85
2023-01-10T05:52:53.220Z,60.69
2023-01-10T05:53:30.669Z,60.83
2023-01-10T05:54:05.981Z,60.64
2023-01-10T05:54:38.069Z,60.26
2023-01-10T05:55:12.929Z,60.47
2023-01-10T05:55:52.298Z,60.23
2023-01-10T05:56:24.444Z,60.21
2023-01-10T05:56:59.185Z,60.01
2023-01-10T05:57:31.331Z,60.55
2023-01-10T05:58:03.666Z,60.18
2023-01-10T05:58:38.353Z,60.62
2023-01-10T05:59:23.781Z,60.36
2023-01-10T05:59:59.286Z,60.36
2023-01-10T06:00:33.928Z,60.41
2023-01-10T06:01:06.104Z,60.11
2023-01-10T06:01:38.213Z,60.26
2023-01-10T06:02:13.254Z,60.39
2023-01-10T06:02:45.596Z,60.49
2023-01-10T06:03:17.981Z,60.39
2023-01-10T06:03:52.674Z,60.41
2023-01-10T06:04:24.881Z,60.71
2023-01-10T06:04:56.942Z,60.50
2023-01-10T06:05:31.716Z,60.43
2023-01-10T06:06:04.389Z,60.45
2023-01-10T06:06:39.119Z,60.41
2023-01-10T06:07:11.252Z,60.03
2023-01-10T06:07:43.373Z,60.04
2023-01-10T06:08:18.178Z,59.41
2023-01-10T06:08:56.104Z,59.68
2023-01-10T06:09:28.334Z,60.04
2023-01-10T06:10:03.000Z,60.35
2023-01-10T06:10:35.166Z,60.65
2023-01-10T06:11:08.042Z,60.90
2023-01-10T06:11:42.777Z,60.64
2023-01-10T06:12:14.907Z,60.52
2023-01-10T06:12:49.755Z,61.30
2023-01-10T06:13:24.504Z,60.78
2023-01-10T06:13:56.808Z,60.95
2023-01-10T06:14:29.041Z,60.62
2023-01-10T06:15:03.942Z,60.35
2023-01-10T06:15:38.477Z,61.04
2023-01-10T06:16:10.739Z,60.38
2023-01-10T06:16:45.457Z,60.62
2023-01-10T06:17:18.561Z,60.97
2023-01-10T06:17:50.633Z,60.84
2023-01-10T06:18:25.288Z,61.27
2023-01-10T06:19:02.067Z,60.90
2023-01-10T06:19:34.260Z,60.77
2023-01-10T06:20:13.584Z,60.69
2023-01-10T06:20:45.665Z,59.75
2023-01-10T06:21:17.805Z,59.97
2023-01-10T06:21:52.488Z,59.92
2023-01-10T06:22:24.698Z,59.85
2023-01-10T06:22:56.893Z,59.60
2023-01-10T06:23:32.135Z,59.66
2023-01-10T06:24:07.768Z,59.26
2023-01-10T06:24:40.170Z,59.24
2023-01-10T06:25:18.611Z,59.30
2023-01-10T06:25:50.738Z,59.75
2023-01-10T06:26:28.213Z,60.40
2023-01-10T06:27:00.374Z,59.90
2023-01-10T06:27:35.041Z,59.74
2023-01-10T06:28:07.527Z,59.30
2023-01-10T06:28:41.179Z,59.29
2023-01-10T06:29:21.232Z,59.11
2023-01-10T06:29:53.295Z,59.09
2023-01-10T06:30:28.035Z,59.06
2023-01-10T06:31:00.269Z,58.96
2023-01-10T06:31:35.075Z,58.55
2023-01-10T06:32:07.263Z,58.41
2023-01-10T06:32:40.615Z,58.10
2023-01-10T06:33:15.496Z,58.75
2023-01-10T06:33:50.531Z,59.14
2023-01-10T06:34:22.618Z,58.94
2023-01-10T06:34:57.494Z,58.84
2023-01-10T06:35:30.031Z,59.25
2023-01-10T06:36:09.905Z,58.95
2023-01-10T06:36:44.546Z,59.08
2023-01-10T06:37:20.295Z,59.01
2023-01-10T06:37:52.484Z,59.21
2023-01-10T06:38:27.187Z,58.71
2023-01-10T06:38:59.310Z,58.96
2023-01-10T06:39:34.119Z,58.79
2023-01-10T06:40:10.199Z,58.31
2023-01-10T06:40:45.269Z,58.67
2023-01-10T06:41:17.345Z,58.37
2023-01-10T06:41:52.075Z,57.89
2023-01-10T06:42:26.909Z,58.30
2023-01-10T06:42:59.382Z,58.23
2023-01-10T06:43:34.031Z,58.45
2023-01-10T06:44:06.372Z,57.99
2023-01-10T06:44:41.136Z,58.27
2023-01-10T06:45:13.204Z,58.06
2023-01-10T06:45:47.905Z,58.22
2023-01-10T06:47:57.350Z,58.48
2023-01-10T06:48:29.439Z,58.58
2023-01-10T06:49:04.201Z,59.21
2023-01-10T06:49:36.313Z,59.10
2023-01-10T06:50:12.910Z,58.91
2023-01-10T06:50:45.000Z,58.62
2023-01-10T06:51:20.523Z,58.55
2023-01-10T06:51:52.659Z,58.30
2023-01-10T06:52:27.353Z,58.17
2023-01-10T06:53:00.902Z,58.17
2023-01-10T06:53:33.196Z,57.89
2023-01-10T06:54:07.943Z,57.91
2023-01-10T06:54:42.580Z,58.05
2023-01-10T06:55:14.815Z,58.15
2023-01-10T06:55:50.681Z,58.17
2023-01-10T06:56:22.797Z,57.90
2023-01-10T06:56:54.947Z,57.77
2023-01-10T06:57:35.465Z,57.04
2023-01-10T06:58:07.696Z,57.30
2023-01-10T07:01:31.497Z,58.18
2023-01-10T07:02:03.771Z,58.60
2023-01-10T07:02:36.960Z,58.28
2023-01-10T07:03:12.809Z,57.79
2023-01-10T07:03:45.056Z,58.10
2023-01-10T07:04:17.255Z,57.82
2023-01-10T07:04:52.003Z,57.91
2023-01-10T07:05:24.179Z,58.94
2023-01-10T07:06:00.319Z,58.21
2023-01-10T07:06:35.075Z,57.58
2023-01-10T07:07:07.240Z,57.70
2023-01-10T07:07:39.315Z,57.78
2023-01-10T07:08:15.227Z,58.23
2023-01-10T07:08:47.854Z,57.50
2023-01-10T07:09:22.563Z,57.64
2023-01-10T07:09:57.311Z,57.75
2023-01-10T07:10:29.497Z,56.84
2023-01-10T07:11:04.373Z,57.21
2023-01-10T07:11:36.521Z,57.06
2023-01-10T07:12:08.592Z,56.88
2023-01-10T07:12:43.279Z,56.95
2023-01-10T07:13:15.394Z,57.08
2023-01-10T07:13:47.667Z,56.72
2023-01-10T07:14:22.426Z,57.05
2023-01-10T07:14:54.665Z,56.73
2023-01-10T07:15:27.401Z,56.58
2023-01-10T07:16:05.978Z,55.57
2023-01-10T07:16:38.147Z,56.44
2023-01-10T07:17:12.798Z,56.39
2023-01-10T07:17:44.871Z,56.75
2023-01-10T07:18:20.521Z,57.06
2023-01-10T07:18:58.379Z,56.95
2023-01-10T07:19:30.504Z,56.77
2023-01-10T07:20:05.179Z,56.99
2023-01-10T07:20:37.250Z,57.70
2023-01-10T07:21:13.024Z,57.18
2023-01-10T07:21:45.168Z,57.27
2023-01-10T07:22:17.339Z,56.80
2023-01-10T07:22:57.435Z,56.68
2023-01-10T07:23:31.266Z,56.79
2023-01-10T07:24:03.694Z,56.38
2023-01-10T07:24:38.324Z,56.72
2023-01-10T07:25:13.002Z,56.71
2023-01-10T07:25:45.282Z,56.60
2023-01-10T07:26:20.784Z,57.09
2023-01-10T07:26:55.088Z,56.99
2023-01-10T07:31:45.867Z,56.37
2023-01-10T07:32:18.131Z,56.58
2023-01-10T07:32:54.083Z,56.65
2023-01-10T07:33:28.731Z,56.79
2023-01-10T07:34:01.011Z,56.67
2023-01-10T07:34:33.094Z,56.44
2023-01-10T07:35:08.368Z,56.53
2023-01-10T07:35:40.556Z,55.90
2023-01-10T07:36:13.090Z,56.13
2023-01-10T07:36:47.756Z,55.80
2023-01-10T07:37:20.050Z,55.77
2023-01-10T07:37:52.275Z,55.79
2023-01-10T07:38:27.001Z,56.19
2023-01-10T07:41:58.189Z,56.53
2023-01-10T07:42:30.400Z,57.05
2023-01-10T07:43:05.752Z,56.92
2023-01-10T07:43:38.080Z,56.63
2023-01-10T07:44:10.272Z,56.66
2023-01-10T07:44:44.965Z,57.19
2023-01-10T07:45:47.239Z,56.27
2023-01-10T07:46:22.003Z,56.80
2023-01-10T07:46:55.209Z,56.78
2023-01-10T07:47:28.638Z,56.37
2023-01-10T07:48:04.702Z,56.60
2023-01-10T07:48:36.998Z,56.84
2023-01-10T07:53:26.440Z,56.33
2023-01-10T07:53:58.671Z,56.24
2023-01-10T07:54:33.332Z,56.13
2023-01-10T07:55:09.927Z,55.63
2023-01-10T07:55:43.647Z,55.76
2023-01-10T07:56:22.639Z,55.90
2023-01-10T07:57:20.915Z,56.19
2023-01-10T07:57:58.197Z,57.17
2023-01-10T07:58:30.420Z,57.42
2023-01-10T07:59:07.620Z,57.39
2023-01-10T07:59:54.754Z,56.95
2023-01-10T08:00:29.872Z,55.97
2023-01-10T08:01:03.561Z,56.35
2023-01-10T08:01:41.168Z,56.69
2023-01-10T08:02:13.293Z,55.81
2023-01-10T08:02:48.402Z,55.92
2023-01-10T08:03:20.663Z,55.72
2023-01-10T08:03:55.523Z,55.81
2023-01-10T08:04:30.623Z,55.80
2023-01-10T08:05:02.869Z,55.31
2023-01-10T08:05:37.533Z,55.39
2023-01-10T08:06:11.267Z,55.40
2023-01-10T08:06:48.307Z,55.09
2023-01-10T08:07:20.397Z,55.43
2023-01-10T08:08:07.194Z,56.72
2023-01-10T08:08:56.908Z,56.75
2023-01-10T08:09:28.984Z,57.07
2023-01-10T08:10:02.107Z,56.93
2023-01-10T08:10:37.795Z,56.16
2023-01-10T08:11:09.910Z,55.70
2023-01-10T08:11:43.426Z,55.85
2023-01-10T08:12:20.655Z,55.63
2023-01-10T08:12:52.810Z,55.66
2023-01-10T08:13:24.881Z,55.08
2023-01-10T08:13:59.540Z,55.76
2023-01-10T08:14:31.688Z,55.71
2023-01-10T08:15:04.408Z,56.41
2023-01-10T08:15:39.202Z,56.13
2023-01-10T08:16:11.466Z,56.58
2023-01-10T08:16:43.583Z,56.39
2023-01-10T08:17:18.351Z,56.11
2023-01-10T08:17:50.441Z,55.31
2023-01-10T08:18:26.101Z,55.18
2023-01-10T08:18:58.148Z,54.96
2023-01-10T08:19:30.239Z,54.52
2023-01-10T08:20:05.725Z,53.79
2023-01-10T08:20:37.849Z,54.46
2023-01-10T08:21:12.905Z,54.05
2023-01-10T08:21:46.159Z,54.64
2023-01-10T08:22:21.057Z,54.69
2023-01-10T08:22:53.187Z,55.07
2023-01-10T08:23:27.877Z,55.04